Terminal Aerodrome Forecast
Issued by NWS Wilmington, OH

Current Version | Previous Version | Text Only | Print | Product List | Glossary Off
Versions: 1 2 3 4 5 6 7 8 9 10 11 12 13 14 15 16 17 18 19 20 21 22

000
FTUS41 KILN 222337
TAFCVG
TAF
KCVG 222337Z 2300/2406 VRB03KT P6SM SCT250
     FM230600 VRB03KT P6SM BKN250
     FM231400 08005KT P6SM SCT150
     FM240300 11005KT P6SM SCT150 BKN200=

USA.gov is the U.S. government's official web portal to all federal, state and local government web resources and services.